Forside
METAR-TAF:

METAR-TAF

Lufthavne :

Pardubice, Tjekkiet

Breddekreds: 50-00-48N, længdekreds: 15-44-19E, højde: 226 m

Aktuelle vejr

Denne rapport blev lavet for 21 minutter siden, kl. 23:30 UTC
Vind 1 kt fra varierende retninger
Temperatur 8°C
Fugtighed 87%
Tryk 1027 hPa
Sigt 10 km eller mere
ingen skyer under 1500m og ingen cumulonimbus

METAR: LKPD 122330Z VRB01KT CAVOK 08/06 Q1027 RMK BLU

Tid: 01:51 (23:51 UTC)

Vejrudsigter

Denne rapport blev lavet for 6 timer og 51 minutter siden, kl. 17:00 UTC
Foreløbig gælder fra 12 på 18 UTC til 13 på 18 UTC
Vind 8 kt fra vest
Sigt 10 km eller mere
ingen skyer under 1500m og ingen cumulonimbus
Midlertidig
fra 12 på 18 UTC til 13 på 06 UTC
Vind 2 kt fra varierende retninger

TAF: LKPD 121700Z 1218/1318 28008KT CAVOK TEMPO 1218/1306 VRB02KT

Vejrobservationer og prognoser fra mere end 4000 lufthavne (METAR og TAF).

De gule og røde prikker repræsenterer de meteorologiske stationer.

Flyt musen over at se navnet på stationen.

Så klik over at se vejr observationer og prognoser.

At skifte det kort: Klik på de grønne knapper med et sort kors for at zoome ind; på den grønne knap med en bindestreg for at zoome ud; eller på de grønne pile for tilstødende kort.


METAR-TAF: